Time;durP1;ratioP1;P1;durP2;ratioP2;P2;SDS_P1;SDS_P2;PMS_P1;PMS_P2;Temp;Humidity;BMP_temperature;BMP_pressure;BME280_temperature;BME280_humidity;BME280_pressure;Samples;Min_cycle;Max_cycle;Signal;HPM_P1;HPM_P2
2023/06/23 00:02:18;;;;;;;19.98;13.07;;;;;;;;;;4991820;28;20073;-63
2023/06/23 00:04:43;;;;;;;19.25;11.93;;;;;;;;;;5007147;28;20113;-63
2023/06/23 00:07:09;;;;;;;17.10;11.48;;;;;;;;;;5031061;28;20376;-63
2023/06/23 00:09:37;;;;;;;18.33;12.10;;;;;;;;;;5010550;28;20434;-62
2023/06/23 00:12:07;;;;;;;20.98;11.90;;;;;;;;;;5011423;28;20169;-63
2023/06/23 00:14:33;;;;;;;18.70;12.50;;;;;;;;;;5013782;28;20030;-63
2023/06/23 00:16:58;;;;;;;19.08;11.50;;;;;;;;;;5000362;28;20030;-63
2023/06/23 00:19:23;;;;;;;18.23;11.07;;;;;;;;;;4991825;28;20388;-63
2023/06/23 00:21:49;;;;;;;19.88;10.95;;;;;;;;;;4989708;28;20030;-64
2023/06/23 00:24:14;;;;;;;18.33;11.35;;;;;;;;;;4993601;28;20026;-63
2023/06/23 00:26:40;;;;;;;19.67;10.77;;;;;;;;;;5007020;28;20532;-63
2023/06/23 00:29:05;;;;;;;19.90;11.10;;;;;;;;;;5015007;28;20128;-62
2023/06/23 00:31:31;;;;;;;18.35;12.45;;;;;;;;;;5013441;28;20034;-63
2023/06/23 00:33:56;;;;;;;19.50;12.02;;;;;;;;;;4998602;28;20113;-62
2023/06/23 00:36:21;;;;;;;19.83;12.27;;;;;;;;;;4993995;28;20031;-62
2023/06/23 00:38:47;;;;;;;17.95;12.15;;;;;;;;;;5006566;28;20364;-62
2023/06/23 00:41:12;;;;;;;20.30;12.40;;;;;;;;;;5013688;28;20132;-63
2023/06/23 00:43:37;;;;;;;21.13;12.95;;;;;;;;;;5008613;28;20034;-63
2023/06/23 00:46:24;;;;;;;20.88;12.90;;;;;;;;;;4994826;28;20172;-63
2023/06/23 00:48:49;;;;;;;23.38;13.50;;;;;;;;;;4994339;28;20161;-63
2023/06/23 00:51:16;;;;;;;26.83;13.88;;;;;;;;;;4995436;28;20121;-64
2023/06/23 00:53:51;;;;;;;23.35;13.82;;;;;;;;;;4993780;28;20459;-63
2023/06/23 00:56:21;;;;;;;24.05;14.07;;;;;;;;;;4995004;28;20042;-63
2023/06/23 00:58:47;;;;;;;21.88;13.48;;;;;;;;;;4992743;28;20467;-63
2023/06/23 01:01:12;;;;;;;19.98;13.20;;;;;;;;;;5013691;28;20042;-63
2023/06/23 01:03:38;;;;;;;21.42;13.23;;;;;;;;;;4993535;28;20109;-63
2023/06/23 01:06:20;;;;;;;21.95;13.75;;;;;;;;;;4994593;28;20026;-63
2023/06/23 01:08:56;;;;;;;23.27;14.38;;;;;;;;;;4993453;28;20080;-63
2023/06/23 01:11:35;;;;;;;24.05;14.43;;;;;;;;;;4994800;28;20037;-63
2023/06/23 01:14:22;;;;;;;27.17;14.27;;;;;;;;;;4997317;28;20049;-63
2023/06/23 01:17:10;;;;;;;25.15;15.18;;;;;;;;;;5013272;28;20049;-63
2023/06/23 01:19:38;;;;;;;25.92;16.30;;;;;;;;;;5012453;28;20034;-62
2023/06/23 01:22:41;;;;;;;27.23;16.20;;;;;;;;;;5013973;28;20113;-63
2023/06/23 01:25:41;;;;;;;27.27;16.38;;;;;;;;;;5012437;28;20080;-63
2023/06/23 01:28:34;;;;;;;24.83;15.87;;;;;;;;;;5007934;28;20049;-63
2023/06/23 01:31:02;;;;;;;24.17;15.52;;;;;;;;;;5006238;28;20826;-63
2023/06/23 01:33:37;;;;;;;24.10;15.32;;;;;;;;;;4996926;28;20057;-64
2023/06/23 01:36:12;;;;;;;22.13;15.43;;;;;;;;;;5008951;28;20030;-63
2023/06/23 01:38:47;;;;;;;21.30;15.65;;;;;;;;;;5021464;28;20030;-63
2023/06/23 01:41:17;;;;;;;27.50;16.67;;;;;;;;;;5033061;28;20046;-64
2023/06/23 01:43:48;;;;;;;24.33;16.88;;;;;;;;;;5023930;28;20037;-63
2023/06/23 01:46:25;;;;;;;;;;;;;;;;;;4993802;28;20062;-63
2023/06/23 01:48:56;;;;;;;26.00;16.45;;;;;;;;;;5005008;28;19925;-63
2023/06/23 01:51:23;;;;;;;28.90;17.40;;;;;;;;;;5013309;28;20026;-63
2023/06/23 01:53:50;;;;;;;27.83;18.40;;;;;;;;;;4993669;28;20041;-63
2023/06/23 01:56:17;;;;;;;31.05;19.38;;;;;;;;;;5020357;28;20466;-64
2023/06/23 01:58:43;;;;;;;29.73;19.30;;;;;;;;;;5010987;28;20172;-63
2023/06/23 02:01:11;;;;;;;32.55;20.30;;;;;;;;;;5006986;28;20484;-63
2023/06/23 02:03:38;;;;;;;33.78;20.20;;;;;;;;;;4999985;28;20034;-64
2023/06/23 02:06:05;;;;;;;32.30;19.75;;;;;;;;;;5006064;28;20049;-63
2023/06/23 02:08:34;;;;;;;29.23;19.67;;;;;;;;;;4993172;28;20061;-64
2023/06/23 02:11:01;;;;;;;32.50;20.40;;;;;;;;;;4992521;28;20022;-64
2023/06/23 02:13:28;;;;;;;36.78;21.20;;;;;;;;;;5007332;28;20056;-64
2023/06/23 02:15:55;;;;;;;36.55;21.02;;;;;;;;;;5012111;28;20455;-63
2023/06/23 02:18:22;;;;;;;33.78;20.95;;;;;;;;;;5012962;28;20128;-63
2023/06/23 02:20:48;;;;;;;34.35;20.70;;;;;;;;;;5011701;28;20046;-64
2023/06/23 02:23:14;;;;;;;39.85;21.95;;;;;;;;;;5013176;28;20034;-63
2023/06/23 02:25:41;;;;;;;30.85;19.08;;;;;;;;;;5010033;28;20041;-64
2023/06/23 02:28:08;;;;;;;40.97;21.42;;;;;;;;;;5012545;28;20116;-63
2023/06/23 02:30:34;;;;;;;31.50;20.02;;;;;;;;;;5013018;28;20033;-64
2023/06/23 02:33:00;;;;;;;34.17;19.42;;;;;;;;;;5017575;28;20087;-63
2023/06/23 02:35:25;;;;;;;30.98;19.17;;;;;;;;;;5025300;28;20498;-63
2023/06/23 02:38:00;;;;;;;30.48;19.38;;;;;;;;;;4993098;28;20037;-64
2023/06/23 02:40:29;;;;;;;27.85;17.90;;;;;;;;;;4994296;28;20061;-63
2023/06/23 02:43:17;;;;;;;34.00;18.50;;;;;;;;;;4992026;28;20065;-63
2023/06/23 02:45:47;;;;;;;32.92;19.02;;;;;;;;;;4992150;28;20038;-63
2023/06/23 02:48:16;;;;;;;33.22;19.02;;;;;;;;;;5025929;28;20033;-63
2023/06/23 02:50:44;;;;;;;31.38;18.65;;;;;;;;;;5031727;28;20033;-63
2023/06/23 02:53:16;;;;;;;33.88;18.55;;;;;;;;;;5032107;28;20033;-63
2023/06/23 02:55:46;;;;;;;33.17;18.40;;;;;;;;;;5003651;28;20582;-63
2023/06/23 02:58:14;;;;;;;32.40;18.27;;;;;;;;;;4992691;28;20034;-64
2023/06/23 03:00:40;;;;;;;35.92;19.77;;;;;;;;;;5008994;28;20502;-63
2023/06/23 03:03:12;;;;;;;33.80;19.45;;;;;;;;;;5011549;28;20411;-63
2023/06/23 03:05:37;;;;;;;33.85;19.65;;;;;;;;;;5005563;28;20079;-63
2023/06/23 03:08:03;;;;;;;35.65;21.15;;;;;;;;;;5002070;28;20625;-64
2023/06/23 03:10:28;;;;;;;37.42;20.70;;;;;;;;;;4992233;28;20050;-63
2023/06/23 03:12:54;;;;;;;35.88;22.05;;;;;;;;;;4991674;28;20361;-63
2023/06/23 03:15:20;;;;;;;38.58;23.23;;;;;;;;;;4998591;28;20141;-64
2023/06/23 03:17:48;;;;;;;39.03;22.80;;;;;;;;;;5011076;28;20053;-63
2023/06/23 03:20:31;;;;;;;42.00;24.95;;;;;;;;;;5011663;28;20030;-63
2023/06/23 03:23:11;;;;;;;42.97;24.27;;;;;;;;;;5010984;28;20398;-64
2023/06/23 03:25:37;;;;;;;43.47;24.27;;;;;;;;;;5011857;28;20481;-63
2023/06/23 03:28:08;;;;;;;40.78;24.05;;;;;;;;;;5025264;28;20628;-63
2023/06/23 03:30:47;;;;;;;42.53;24.55;;;;;;;;;;5014829;28;20475;-63
2023/06/23 03:33:28;;;;;;;45.83;24.98;;;;;;;;;;5007797;28;20034;-63
2023/06/23 03:35:56;;;;;;;43.15;24.70;;;;;;;;;;5001139;28;20034;-63
2023/06/23 03:38:23;;;;;;;41.90;24.48;;;;;;;;;;5002735;28;20038;-64
2023/06/23 03:41:00;;;;;;;44.63;23.65;;;;;;;;;;4998042;28;20072;-63
2023/06/23 03:43:36;;;;;;;44.00;24.63;;;;;;;;;;5004674;28;20034;-64
2023/06/23 03:46:06;;;;;;;42.47;23.35;;;;;;;;;;5030412;28;20029;-64
2023/06/23 03:48:38;;;;;;;43.70;24.02;;;;;;;;;;5031266;28;20025;-63
2023/06/23 03:51:04;;;;;;;47.08;23.85;;;;;;;;;;5012216;28;20038;-64
2023/06/23 03:53:31;;;;;;;47.03;24.00;;;;;;;;;;5010286;28;20029;-64
2023/06/23 03:55:59;;;;;;;46.97;22.92;;;;;;;;;;5021506;28;20052;-63
2023/06/23 03:58:27;;;;;;;41.50;23.27;;;;;;;;;;5002963;28;20050;-63
2023/06/23 04:00:55;;;;;;;43.22;22.98;;;;;;;;;;5014406;28;20034;-63
2023/06/23 04:03:21;;;;;;;45.58;23.92;;;;;;;;;;5009035;28;20140;-63
2023/06/23 04:05:49;;;;;;;38.95;22.88;;;;;;;;;;5001606;28;20446;-63
2023/06/23 04:08:17;;;;;;;42.92;22.20;;;;;;;;;;4994502;28;20093;-62
2023/06/23 04:10:44;;;;;;;40.85;21.83;;;;;;;;;;4995762;28;20475;-63
2023/06/23 04:13:12;;;;;;;45.35;23.65;;;;;;;;;;4994841;28;20065;-63
2023/06/23 04:15:38;;;;;;;44.97;23.17;;;;;;;;;;5005605;28;20125;-63
2023/06/23 04:18:06;;;;;;;42.30;22.95;;;;;;;;;;4994843;28;20030;-63
2023/06/23 04:20:33;;;;;;;42.92;22.77;;;;;;;;;;4995571;28;20034;-63
2023/06/23 04:23:00;;;;;;;38.58;22.08;;;;;;;;;;4994323;28;20037;-63
2023/06/23 04:25:26;;;;;;;39.00;22.85;;;;;;;;;;4995321;28;20030;-64
2023/06/23 04:28:04;;;;;;;43.63;23.20;;;;;;;;;;5004010;28;20025;-62
2023/06/23 04:30:32;;;;;;;44.30;24.02;;;;;;;;;;4995984;28;20058;-63
2023/06/23 04:32:58;;;;;;;41.95;23.77;;;;;;;;;;4992581;28;20033;-64
2023/06/23 04:35:24;;;;;;;44.10;24.48;;;;;;;;;;4995154;28;20035;-64
2023/06/23 04:37:57;;;;;;;44.40;24.33;;;;;;;;;;4995462;28;20037;-63
2023/06/23 04:40:37;;;;;;;41.58;24.05;;;;;;;;;;4999853;28;20085;-64
2023/06/23 04:43:14;;;;;;;40.40;24.48;;;;;;;;;;5013856;28;20117;-64
2023/06/23 04:45:51;;;;;;;42.00;22.88;;;;;;;;;;5009614;28;20033;-59
2023/06/23 04:48:21;;;;;;;43.30;24.45;;;;;;;;;;5018365;28;20049;-59
2023/06/23 04:50:47;;;;;;;41.60;25.13;;;;;;;;;;5014687;28;20042;-59
2023/06/23 04:53:18;;;;;;;40.05;24.58;;;;;;;;;;5013872;28;20026;-59
2023/06/23 04:55:47;;;;;;;40.58;24.05;;;;;;;;;;5020103;28;20030;-59
2023/06/23 04:58:13;;;;;;;43.67;24.67;;;;;;;;;;5013226;28;20566;-59
2023/06/23 05:00:41;;;;;;;37.03;23.45;;;;;;;;;;5008460;28;20472;-59
2023/06/23 05:03:07;;;;;;;39.13;23.88;;;;;;;;;;4993223;28;20058;-60
2023/06/23 05:05:35;;;;;;;36.47;22.20;;;;;;;;;;5006215;28;20036;-60
2023/06/23 05:08:03;;;;;;;38.95;23.38;;;;;;;;;;5011372;28;20021;-60
2023/06/23 05:10:30;;;;;;;40.33;23.42;;;;;;;;;;5012694;28;20479;-60
2023/06/23 05:12:57;;;;;;;36.03;22.00;;;;;;;;;;5013224;28;20033;-60
2023/06/23 05:15:24;;;;;;;36.53;22.73;;;;;;;;;;5014320;28;20034;-60
2023/06/23 05:17:55;;;;;;;45.47;23.63;;;;;;;;;;5023690;28;20029;-60
2023/06/23 05:20:23;;;;;;;37.40;23.23;;;;;;;;;;5024725;28;20462;-60
2023/06/23 05:22:50;;;;;;;40.33;23.15;;;;;;;;;;5001394;28;20039;-60
2023/06/23 05:25:18;;;;;;;37.63;24.20;;;;;;;;;;4994026;28;20030;-60
2023/06/23 05:27:45;;;;;;;39.70;23.67;;;;;;;;;;5003191;28;20027;-59
2023/06/23 05:30:15;;;;;;;41.03;25.05;;;;;;;;;;5006345;28;20542;-63
2023/06/23 05:32:42;;;;;;;44.97;24.52;;;;;;;;;;5015760;28;20033;-62
2023/06/23 05:35:10;;;;;;;39.75;24.48;;;;;;;;;;5003904;28;20125;-64
2023/06/23 05:37:38;;;;;;;46.30;25.35;;;;;;;;;;5003037;28;20062;-63
2023/06/23 05:40:06;;;;;;;42.20;25.50;;;;;;;;;;4998308;28;20036;-62
2023/06/23 05:42:35;;;;;;;43.25;25.10;;;;;;;;;;5001101;28;20037;-62
2023/06/23 05:45:02;;;;;;;44.55;25.42;;;;;;;;;;4994434;28;20025;-63
2023/06/23 05:47:45;;;;;;;37.95;23.73;;;;;;;;;;5009440;28;20049;-63
2023/06/23 05:50:23;;;;;;;46.83;24.60;;;;;;;;;;5006441;28;20583;-63
2023/06/23 05:52:56;;;;;;;43.53;25.20;;;;;;;;;;5024321;28;20033;-63
2023/06/23 05:55:24;;;;;;;37.97;23.05;;;;;;;;;;5016445;28;20091;-62
2023/06/23 05:57:54;;;;;;;40.47;23.45;;;;;;;;;;5019838;28;20478;-62
2023/06/23 06:00:23;;;;;;;36.05;23.48;;;;;;;;;;5005566;28;20037;-62
2023/06/23 06:02:52;;;;;;;42.78;23.90;;;;;;;;;;5003942;28;20398;-67
2023/06/23 06:05:20;;;;;;;40.92;24.77;;;;;;;;;;5000807;28;20050;-63
2023/06/23 06:07:46;;;;;;;41.45;24.38;;;;;;;;;;5011670;28;20083;-62
2023/06/23 06:10:14;;;;;;;40.05;23.77;;;;;;;;;;5012634;28;20365;-63
2023/06/23 06:12:40;;;;;;;41.00;24.08;;;;;;;;;;5020013;28;20042;-62
2023/06/23 06:15:09;;;;;;;38.35;24.10;;;;;;;;;;5031693;28;20068;-62
2023/06/23 06:17:38;;;;;;;41.47;23.92;;;;;;;;;;5022463;28;20038;-62
2023/06/23 06:20:05;;;;;;;39.38;24.95;;;;;;;;;;5011472;28;20395;-63
2023/06/23 06:22:34;;;;;;;40.95;24.92;;;;;;;;;;5011554;28;20490;-63
2023/06/23 06:25:02;;;;;;;37.45;24.05;;;;;;;;;;5011327;28;20025;-62
2023/06/23 06:27:29;;;;;;;38.53;24.20;;;;;;;;;;5012329;28;20421;-62
2023/06/23 06:29:56;;;;;;;39.00;24.58;;;;;;;;;;5011135;28;20034;-62
2023/06/23 06:32:22;;;;;;;39.67;23.50;;;;;;;;;;5011481;28;20040;-61
2023/06/23 06:34:50;;;;;;;39.50;24.95;;;;;;;;;;5012809;28;20084;-61
2023/06/23 06:37:18;;;;;;;35.97;24.42;;;;;;;;;;5007623;28;20518;-61
2023/06/23 06:39:44;;;;;;;38.75;24.58;;;;;;;;;;4992454;28;20122;-62
2023/06/23 06:42:10;;;;;;;38.03;23.55;;;;;;;;;;4995064;28;20509;-62
2023/06/23 06:44:36;;;;;;;40.47;24.48;;;;;;;;;;5007752;28;20030;-61
2023/06/23 06:47:04;;;;;;;37.42;23.67;;;;;;;;;;5001628;28;20500;-63
2023/06/23 06:49:31;;;;;;;32.72;22.15;;;;;;;;;;5012441;28;20034;-61
2023/06/23 06:51:59;;;;;;;34.50;23.45;;;;;;;;;;5011415;28;20034;-61
2023/06/23 06:54:24;;;;;;;30.75;20.80;;;;;;;;;;5011128;28;20041;-62
2023/06/23 06:56:50;;;;;;;31.25;20.17;;;;;;;;;;5011625;28;20029;-61
2023/06/23 06:59:15;;;;;;;28.67;19.88;;;;;;;;;;5010970;28;20094;-62
2023/06/23 07:01:42;;;;;;;27.42;17.50;;;;;;;;;;5005526;28;20018;-61
2023/06/23 07:04:09;;;;;;;24.55;18.17;;;;;;;;;;4993309;28;20120;-61
2023/06/23 07:06:36;;;;;;;23.23;17.40;;;;;;;;;;5013479;28;20036;-62
2023/06/23 07:09:03;;;;;;;24.50;16.77;;;;;;;;;;5003385;28;20038;-63
2023/06/23 07:11:30;;;;;;;24.48;16.55;;;;;;;;;;5031953;28;20417;-63
2023/06/23 07:13:56;;;;;;;22.77;16.35;;;;;;;;;;5012191;28;20478;-63
2023/06/23 07:16:21;;;;;;;22.42;15.63;;;;;;;;;;5015435;28;20025;-63
2023/06/23 07:18:47;;;;;;;25.20;15.88;;;;;;;;;;5021022;28;20048;-63
2023/06/23 07:21:12;;;;;;;21.63;14.95;;;;;;;;;;5029115;28;20428;-68
2023/06/23 07:23:37;;;;;;;21.65;14.82;;;;;;;;;;5016124;28;20037;-61
2023/06/23 07:26:03;;;;;;;22.27;14.75;;;;;;;;;;5024631;28;20048;-63
2023/06/23 07:28:28;;;;;;;19.38;14.13;;;;;;;;;;5016109;28;20034;-62
2023/06/23 07:30:54;;;;;;;22.83;13.27;;;;;;;;;;5017037;28;20064;-63
2023/06/23 07:33:20;;;;;;;19.90;11.70;;;;;;;;;;5025820;28;20486;-63
2023/06/23 07:35:45;;;;;;;16.88;12.05;;;;;;;;;;5008979;28;20027;-63
2023/06/23 07:38:11;;;;;;;15.80;11.55;;;;;;;;;;5012687;28;20448;-63
2023/06/23 07:40:36;;;;;;;17.02;11.85;;;;;;;;;;5015122;28;20052;-60
2023/06/23 07:43:02;;;;;;;15.43;10.80;;;;;;;;;;5014162;28;20036;-63
2023/06/23 07:45:27;;;;;;;12.85;9.40;;;;;;;;;;5012662;28;20398;-61
2023/06/23 07:47:53;;;;;;;13.32;8.23;;;;;;;;;;5015531;28;20037;-62
2023/06/23 07:50:18;;;;;;;11.60;8.48;;;;;;;;;;5014944;28;20803;-61
2023/06/23 07:52:50;;;;;;;14.23;8.73;;;;;;;;;;5014201;28;20061;-62
2023/06/23 07:55:19;;;;;;;14.30;8.35;;;;;;;;;;5014688;28;20594;-63
2023/06/23 07:57:45;;;;;;;13.82;8.30;;;;;;;;;;5014253;28;20026;-62
2023/06/23 08:00:11;;;;;;;11.48;7.53;;;;;;;;;;5014345;28;20117;-62
2023/06/23 08:02:36;;;;;;;10.88;6.82;;;;;;;;;;5017337;28;20108;-61
2023/06/23 08:05:03;;;;;;;12.75;7.25;;;;;;;;;;5012294;28;20099;-64
2023/06/23 08:07:28;;;;;;;11.15;6.90;;;;;;;;;;5012262;28;20127;-64
2023/06/23 08:09:54;;;;;;;10.07;6.63;;;;;;;;;;5026501;28;20482;-64
2023/06/23 08:12:19;;;;;;;9.75;6.53;;;;;;;;;;5023007;28;20835;-64
2023/06/23 08:14:45;;;;;;;11.20;6.63;;;;;;;;;;5032214;28;20478;-65
2023/06/23 08:17:10;;;;;;;7.05;5.13;;;;;;;;;;5020632;28;20026;-65
2023/06/23 08:19:35;;;;;;;9.00;5.05;;;;;;;;;;4997794;28;20049;-64
2023/06/23 08:22:03;;;;;;;8.73;5.47;;;;;;;;;;5008820;28;20475;-64
2023/06/23 08:24:28;;;;;;;7.65;5.38;;;;;;;;;;5005546;28;20038;-65
2023/06/23 08:26:54;;;;;;;8.05;5.30;;;;;;;;;;4995053;28;20057;-64
2023/06/23 08:29:19;;;;;;;9.70;5.47;;;;;;;;;;5010860;28;20038;-64
2023/06/23 08:31:45;;;;;;;8.30;5.40;;;;;;;;;;5029300;28;20397;-65
2023/06/23 08:34:10;;;;;;;10.93;5.47;;;;;;;;;;5018652;28;20046;-65
2023/06/23 08:36:35;;;;;;;8.52;4.80;;;;;;;;;;5014263;28;20026;-64
2023/06/23 08:39:01;;;;;;;7.22;4.70;;;;;;;;;;5009946;28;20041;-64
2023/06/23 08:41:29;;;;;;;8.88;4.47;;;;;;;;;;5014581;28;20096;-65
2023/06/23 08:43:57;;;;;;;7.10;4.65;;;;;;;;;;5016664;28;20030;-66
2023/06/23 08:46:29;;;;;;;7.40;4.55;;;;;;;;;;5013764;28;20038;-64
2023/06/23 08:49:01;;;;;;;7.93;4.78;;;;;;;;;;5014104;28;20045;-65
2023/06/23 08:51:27;;;;;;;8.25;4.63;;;;;;;;;;5014739;28;20034;-63
2023/06/23 08:53:52;;;;;;;6.40;4.32;;;;;;;;;;5008084;28;20091;-62
2023/06/23 08:56:18;;;;;;;7.47;4.70;;;;;;;;;;5011853;28;20034;-62
2023/06/23 08:58:44;;;;;;;6.97;4.28;;;;;;;;;;5008164;28;20029;-61
2023/06/23 09:01:09;;;;;;;6.18;4.05;;;;;;;;;;5033174;28;20025;-63
2023/06/23 09:03:35;;;;;;;7.65;4.35;;;;;;;;;;5017976;28;20391;-61
2023/06/23 09:06:00;;;;;;;7.82;5.10;;;;;;;;;;5014298;28;20030;-62
2023/06/23 09:08:26;;;;;;;6.60;4.82;;;;;;;;;;5013442;28;20038;-62
2023/06/23 09:10:51;;;;;;;8.23;4.90;;;;;;;;;;5014599;28;20030;-63
2023/06/23 09:13:19;;;;;;;8.40;4.68;;;;;;;;;;5013085;28;20045;-65
2023/06/23 09:15:48;;;;;;;6.32;4.78;;;;;;;;;;5013791;28;20030;-62
2023/06/23 09:18:15;;;;;;;6.55;4.28;;;;;;;;;;5012555;28;20029;-64
2023/06/23 09:20:45;;;;;;;7.40;5.00;;;;;;;;;;5026136;28;20037;-64
2023/06/23 09:23:18;;;;;;;7.72;4.30;;;;;;;;;;5027789;28;20189;-62
2023/06/23 09:25:44;;;;;;;8.82;4.25;;;;;;;;;;5013536;28;20034;-63
2023/06/23 09:28:29;;;;;;;6.15;4.10;;;;;;;;;;5028061;28;20040;-62
2023/06/23 09:30:59;;;;;;;6.38;4.10;;;;;;;;;;5013978;28;20383;-62
2023/06/23 09:33:26;;;;;;;7.85;4.60;;;;;;;;;;5006791;28;20042;-62
2023/06/23 09:35:53;;;;;;;7.38;4.70;;;;;;;;;;5028361;28;20041;-62
2023/06/23 09:38:23;;;;;;;7.20;4.60;;;;;;;;;;5026603;28;20048;-63
2023/06/23 09:41:09;;;;;;;6.82;4.80;;;;;;;;;;5010163;28;20050;-63
2023/06/23 09:43:44;;;;;;;7.53;4.20;;;;;;;;;;5015975;28;20380;-64
2023/06/23 09:46:11;;;;;;;6.43;4.00;;;;;;;;;;5011142;28;20394;-64
2023/06/23 09:48:37;;;;;;;7.05;4.10;;;;;;;;;;5002870;28;20045;-64
2023/06/23 09:51:05;;;;;;;6.10;3.90;;;;;;;;;;4999076;28;20038;-62
2023/06/23 09:53:35;;;;;;;6.88;4.25;;;;;;;;;;5000622;28;20524;-64
2023/06/23 09:56:03;;;;;;;10.82;4.53;;;;;;;;;;5031003;28;20084;-65
2023/06/23 09:58:39;;;;;;;5.25;3.78;;;;;;;;;;5017414;28;20038;-63
2023/06/23 10:01:07;;;;;;;6.97;5.00;;;;;;;;;;4992638;28;20030;-64
2023/06/23 10:03:42;;;;;;;6.95;4.50;;;;;;;;;;4998637;28;20060;-65
2023/06/23 10:06:07;;;;;;;6.03;4.60;;;;;;;;;;5010518;28;20237;-64
2023/06/23 10:08:39;;;;;;;7.90;5.10;;;;;;;;;;5012786;28;20037;-63
2023/06/23 10:11:06;;;;;;;7.30;5.35;;;;;;;;;;5012803;28;20125;-64
2023/06/23 10:13:32;;;;;;;8.63;5.00;;;;;;;;;;5012688;28;20087;-64
2023/06/23 10:15:59;;;;;;;9.25;4.55;;;;;;;;;;5014545;28;20116;-64
2023/06/23 10:18:24;;;;;;;8.30;5.10;;;;;;;;;;5015252;28;20334;-65
2023/06/23 10:20:50;;;;;;;10.07;5.03;;;;;;;;;;5009316;28;20463;-64
2023/06/23 10:23:16;;;;;;;7.70;5.05;;;;;;;;;;5005078;28;20065;-64
2023/06/23 10:25:43;;;;;;;7.55;4.70;;;;;;;;;;5011672;28;20176;-64
2023/06/23 10:28:10;;;;;;;8.13;5.22;;;;;;;;;;5011244;28;20441;-63
2023/06/23 10:30:37;;;;;;;8.00;5.18;;;;;;;;;;5011441;28;20439;-62
2023/06/23 10:33:05;;;;;;;6.68;4.72;;;;;;;;;;5012683;28;20087;-63
2023/06/23 10:35:31;;;;;;;8.38;4.82;;;;;;;;;;5009843;28;20030;-63
2023/06/23 10:38:03;;;;;;;8.38;4.88;;;;;;;;;;5029741;28;20121;-63
2023/06/23 10:40:42;;;;;;;7.28;4.72;;;;;;;;;;5011859;28;20064;-63
2023/06/23 10:43:11;;;;;;;6.80;4.90;;;;;;;;;;5023260;28;20132;-63
2023/06/23 10:45:38;;;;;;;8.65;4.50;;;;;;;;;;5015039;28;20029;-67
2023/06/23 10:48:03;;;;;;;7.60;4.60;;;;;;;;;;5032132;28;20041;-65
2023/06/23 10:50:30;;;;;;;8.50;5.15;;;;;;;;;;5011685;28;20045;-62
2023/06/23 10:53:20;;;;;;;6.68;4.88;;;;;;;;;;5011195;28;20029;-64
2023/06/23 10:55:47;;;;;;;8.60;4.65;;;;;;;;;;4992057;28;20464;-63
2023/06/23 10:58:18;;;;;;;10.95;4.97;;;;;;;;;;4991370;28;20041;-63
2023/06/23 11:00:44;;;;;;;;;;;;;;;;;;5006943;28;20041;-64
2023/06/23 11:03:31;;;;;;;5.53;4.30;;;;;;;;;;5011882;28;19918;-63
2023/06/23 11:05:58;;;;;;;7.40;4.20;;;;;;;;;;5012341;28;20030;-64
2023/06/23 11:08:32;;;;;;;7.72;4.35;;;;;;;;;;5000157;28;20053;-64
2023/06/23 11:11:05;;;;;;;6.75;4.25;;;;;;;;;;5012154;28;20489;-65
2023/06/23 11:13:42;;;;;;;8.18;4.65;;;;;;;;;;5020371;28;20044;-66
2023/06/23 11:16:15;;;;;;;8.60;4.43;;;;;;;;;;5011478;28;20054;-65
2023/06/23 11:18:57;;;;;;;5.78;4.13;;;;;;;;;;5011317;28;20589;-64
2023/06/23 11:21:28;;;;;;;6.43;4.15;;;;;;;;;;5011134;28;20037;-64
2023/06/23 11:24:12;;;;;;;5.75;3.90;;;;;;;;;;5011148;28;20036;-65
2023/06/23 11:26:49;;;;;;;8.00;4.05;;;;;;;;;;5008799;28;20041;-64
2023/06/23 11:29:18;;;;;;;4.88;3.67;;;;;;;;;;5006866;28;20038;-64
2023/06/23 11:32:05;;;;;;;4.82;3.25;;;;;;;;;;5031329;28;20026;-64
2023/06/23 11:34:53;;;;;;;5.50;3.40;;;;;;;;;;5019742;28;20041;-63
2023/06/23 11:37:27;;;;;;;4.70;3.28;;;;;;;;;;5026294;28;20167;-64
2023/06/23 11:39:54;;;;;;;5.75;3.22;;;;;;;;;;5019340;28;20042;-63
2023/06/23 11:42:19;;;;;;;4.43;3.40;;;;;;;;;;5010499;28;20046;-63
2023/06/23 11:44:45;;;;;;;4.13;3.05;;;;;;;;;;5010912;28;20056;-62
2023/06/23 11:47:11;;;;;;;3.67;3.17;;;;;;;;;;5030419;28;20467;-64
2023/06/23 11:49:36;;;;;;;5.40;3.13;;;;;;;;;;5008131;28;20037;-63
2023/06/23 11:52:04;;;;;;;4.32;3.03;;;;;;;;;;4996787;28;20035;-64
2023/06/23 11:54:35;;;;;;;3.80;3.00;;;;;;;;;;4998417;28;20137;-63
2023/06/23 11:57:01;;;;;;;5.45;3.00;;;;;;;;;;5011024;28;20037;-63
2023/06/23 11:59:33;;;;;;;4.75;3.20;;;;;;;;;;5009928;28;20057;-62
2023/06/23 12:01:59;;;;;;;5.00;3.00;;;;;;;;;;5011558;28;20037;-63
2023/06/23 12:04:25;;;;;;;4.93;3.08;;;;;;;;;;5009674;28;20076;-62
2023/06/23 12:06:52;;;;;;;4.10;2.60;;;;;;;;;;5016718;28;20029;-62
2023/06/23 12:09:20;;;;;;;3.75;2.65;;;;;;;;;;5025285;28;20030;-63
2023/06/23 12:11:46;;;;;;;8.52;3.17;;;;;;;;;;5005767;28;20117;-63
2023/06/23 12:14:12;;;;;;;4.43;2.95;;;;;;;;;;5019231;28;20061;-62
2023/06/23 12:16:38;;;;;;;3.55;2.60;;;;;;;;;;5010766;28;20135;-63
2023/06/23 12:19:03;;;;;;;4.05;2.90;;;;;;;;;;5010972;28;20034;-63
2023/06/23 12:21:28;;;;;;;4.07;2.80;;;;;;;;;;5014200;28;20732;-63
2023/06/23 12:23:56;;;;;;;3.42;2.80;;;;;;;;;;5014274;28;20022;-62
2023/06/23 12:26:21;;;;;;;3.78;2.72;;;;;;;;;;5013038;28;20091;-61
2023/06/23 12:28:48;;;;;;;4.18;3.10;;;;;;;;;;5002373;28;20042;-62
2023/06/23 12:31:24;;;;;;;4.60;2.70;;;;;;;;;;5013904;28;20088;-61
2023/06/23 12:33:50;;;;;;;4.18;3.00;;;;;;;;;;5014801;28;20127;-61
2023/06/23 12:36:15;;;;;;;4.03;2.60;;;;;;;;;;5012312;28;20437;-62
2023/06/23 12:38:41;;;;;;;3.53;2.50;;;;;;;;;;5014284;28;20029;-62
2023/06/23 12:41:20;;;;;;;4.32;2.42;;;;;;;;;;5014053;28;20046;-62
2023/06/23 12:43:47;;;;;;;5.22;2.50;;;;;;;;;;5012932;28;20056;-62
2023/06/23 12:46:15;;;;;;;3.45;2.53;;;;;;;;;;5013937;28;20076;-62
2023/06/23 12:48:47;;;;;;;3.65;2.40;;;;;;;;;;5014447;28;20034;-62
2023/06/23 12:51:13;;;;;;;3.53;2.60;;;;;;;;;;5014005;28;20038;-63
2023/06/23 12:53:39;;;;;;;3.15;2.47;;;;;;;;;;5014322;28;20042;-62
2023/06/23 12:56:05;;;;;;;11.35;2.78;;;;;;;;;;5021580;28;20037;-61
2023/06/23 12:58:30;;;;;;;3.28;2.42;;;;;;;;;;5012806;28;20435;-61
2023/06/23 13:00:56;;;;;;;4.20;2.40;;;;;;;;;;5013997;28;20109;-61
2023/06/23 13:03:21;;;;;;;3.00;2.67;;;;;;;;;;5011774;28;20037;-63
2023/06/23 13:05:47;;;;;;;4.75;2.80;;;;;;;;;;5014279;28;20045;-62
2023/06/23 13:08:13;;;;;;;4.45;2.80;;;;;;;;;;5011758;28;20549;-61
2023/06/23 13:10:43;;;;;;;3.40;2.58;;;;;;;;;;5010884;28;20041;-61
2023/06/23 13:13:09;;;;;;;3.90;2.78;;;;;;;;;;5014296;28;20474;-62
2023/06/23 13:15:35;;;;;;;4.72;2.83;;;;;;;;;;5013061;28;20033;-61
2023/06/23 13:18:01;;;;;;;4.07;2.60;;;;;;;;;;5022954;28;20033;-61
2023/06/23 13:20:27;;;;;;;4.80;2.80;;;;;;;;;;5013059;28;20032;-61
2023/06/23 13:22:53;;;;;;;5.88;3.00;;;;;;;;;;5013620;28;20038;-61
2023/06/23 13:25:19;;;;;;;3.67;2.80;;;;;;;;;;5014153;28;20092;-61
2023/06/23 13:27:44;;;;;;;4.13;3.03;;;;;;;;;;4994513;28;20037;-61
2023/06/23 13:30:09;;;;;;;4.78;2.80;;;;;;;;;;5001095;28;20034;-61
2023/06/23 13:32:35;;;;;;;8.40;2.92;;;;;;;;;;5011756;28;20076;-60
2023/06/23 13:35:01;;;;;;;3.55;2.70;;;;;;;;;;5007898;28;20050;-62
2023/06/23 13:37:26;;;;;;;4.28;2.80;;;;;;;;;;4993426;28;20527;-61
2023/06/23 13:39:52;;;;;;;3.72;2.78;;;;;;;;;;4996929;28;20030;-61
2023/06/23 13:42:17;;;;;;;5.40;3.20;;;;;;;;;;4993272;28;20053;-61
2023/06/23 13:44:43;;;;;;;5.97;3.10;;;;;;;;;;4996766;28;20483;-61
2023/06/23 13:47:08;;;;;;;4.97;2.92;;;;;;;;;;5013614;28;20096;-61
2023/06/23 13:49:34;;;;;;;4.05;2.83;;;;;;;;;;5012391;28;20808;-60
2023/06/23 13:51:59;;;;;;;4.40;3.15;;;;;;;;;;5007882;28;20030;-60
2023/06/23 13:54:26;;;;;;;5.10;2.90;;;;;;;;;;5000697;28;20439;-60
2023/06/23 13:56:52;;;;;;;4.00;3.05;;;;;;;;;;5006947;28;20410;-60
2023/06/23 13:59:17;;;;;;;3.30;2.65;;;;;;;;;;5012826;28;20033;-60
2023/06/23 14:01:43;;;;;;;4.63;2.90;;;;;;;;;;5009496;28;20026;-60
2023/06/23 14:04:08;;;;;;;5.15;3.00;;;;;;;;;;4993366;28;20465;-60
2023/06/23 14:06:34;;;;;;;3.90;2.97;;;;;;;;;;4992588;28;20030;-60
2023/06/23 14:09:00;;;;;;;3.80;3.00;;;;;;;;;;5008521;28;20550;-60
2023/06/23 14:11:25;;;;;;;5.47;3.42;;;;;;;;;;5011949;28;20105;-60
2023/06/23 14:13:51;;;;;;;6.18;3.13;;;;;;;;;;5027391;28;20539;-59
2023/06/23 14:16:16;;;;;;;4.60;3.40;;;;;;;;;;5032685;28;20030;-60
2023/06/23 14:18:43;;;;;;;5.05;3.50;;;;;;;;;;5032687;28;20055;-60
2023/06/23 14:21:08;;;;;;;4.30;3.00;;;;;;;;;;5025025;28;20081;-61
2023/06/23 14:23:34;;;;;;;4.53;3.35;;;;;;;;;;4999600;28;20499;-60
2023/06/23 14:25:59;;;;;;;4.30;3.00;;;;;;;;;;5008283;28;20113;-59
2023/06/23 14:28:26;;;;;;;4.35;2.80;;;;;;;;;;5011969;28;20125;-60
2023/06/23 14:30:51;;;;;;;10.45;3.30;;;;;;;;;;5012759;28;20065;-58
2023/06/23 14:33:18;;;;;;;5.03;3.00;;;;;;;;;;5012431;28;20057;-59
2023/06/23 14:35:43;;;;;;;5.50;3.00;;;;;;;;;;5010973;28;20479;-60
2023/06/23 14:38:08;;;;;;;3.42;2.90;;;;;;;;;;5016534;28;20034;-59